sensor_id;sensor_type;location;lat;lon;timestamp;temperature;humidity
39777;DHT22;25453;48.162;14.510;2022-08-19T00:00:06;23.10;72.20
39777;DHT22;25453;48.162;14.510;2022-08-19T00:02:41;23.10;72.20
39777;DHT22;25453;48.162;14.510;2022-08-19T00:05:22;23.10;72.20
39777;DHT22;25453;48.162;14.510;2022-08-19T00:07:56;23.10;71.90
39777;DHT22;25453;48.162;14.510;2022-08-19T00:10:29;23.10;71.70
39777;DHT22;25453;48.162;14.510;2022-08-19T00:13:03;23.00;71.60
39777;DHT22;25453;48.162;14.510;2022-08-19T00:15:31;22.90;71.80
39777;DHT22;25453;48.162;14.510;2022-08-19T00:18:04;22.90;72.10
39777;DHT22;25453;48.162;14.510;2022-08-19T00:20:31;23.00;72.20
39777;DHT22;25453;48.162;14.510;2022-08-19T00:23:06;23.00;72.10
39777;DHT22;25453;48.162;14.510;2022-08-19T00:25:33;23.00;72.00
39777;DHT22;25453;48.162;14.510;2022-08-19T00:28:00;23.00;72.00
39777;DHT22;25453;48.162;14.510;2022-08-19T00:30:34;23.00;72.00
39777;DHT22;25453;48.162;14.510;2022-08-19T00:33:04;22.90;71.60
39777;DHT22;25453;48.162;14.510;2022-08-19T00:35:31;22.90;71.70
39777;DHT22;25453;48.162;14.510;2022-08-19T00:38:06;22.80;71.70
39777;DHT22;25453;48.162;14.510;2022-08-19T00:40:42;22.70;71.90
39777;DHT22;25453;48.162;14.510;2022-08-19T00:43:11;22.70;72.00
39777;DHT22;25453;48.162;14.510;2022-08-19T00:45:46;22.60;72.00
39777;DHT22;25453;48.162;14.510;2022-08-19T00:48:14;22.60;72.20
39777;DHT22;25453;48.162;14.510;2022-08-19T00:50:41;22.70;72.50
39777;DHT22;25453;48.162;14.510;2022-08-19T00:53:18;22.70;72.20
39777;DHT22;25453;48.162;14.510;2022-08-19T00:55:47;22.70;72.10
39777;DHT22;25453;48.162;14.510;2022-08-19T00:58:24;22.60;72.20
39777;DHT22;25453;48.162;14.510;2022-08-19T01:00:54;22.60;72.10
39777;DHT22;25453;48.162;14.510;2022-08-19T01:03:22;22.60;72.20
39777;DHT22;25453;48.162;14.510;2022-08-19T01:06:22;22.60;72.40
39777;DHT22;25453;48.162;14.510;2022-08-19T01:08:56;22.50;72.40
39777;DHT22;25453;48.162;14.510;2022-08-19T01:11:31;22.60;72.50
39777;DHT22;25453;48.162;14.510;2022-08-19T01:14:07;22.60;72.50
39777;DHT22;25453;48.162;14.510;2022-08-19T01:16:35;22.60;72.50
39777;DHT22;25453;48.162;14.510;2022-08-19T01:19:29;22.60;72.50
39777;DHT22;25453;48.162;14.510;2022-08-19T01:22:25;22.70;72.50
39777;DHT22;25453;48.162;14.510;2022-08-19T01:25:00;22.70;72.30
39777;DHT22;25453;48.162;14.510;2022-08-19T01:27:35;22.70;72.20
39777;DHT22;25453;48.162;14.510;2022-08-19T01:30:12;22.70;72.00
39777;DHT22;25453;48.162;14.510;2022-08-19T01:32:40;22.60;71.80
39777;DHT22;25453;48.162;14.510;2022-08-19T01:35:13;22.50;71.80
39777;DHT22;25453;48.162;14.510;2022-08-19T01:37:51;22.50;72.20
39777;DHT22;25453;48.162;14.510;2022-08-19T01:40:20;22.40;72.20
39777;DHT22;25453;48.162;14.510;2022-08-19T01:42:56;22.40;72.20
39777;DHT22;25453;48.162;14.510;2022-08-19T01:45:25;22.30;72.20
39777;DHT22;25453;48.162;14.510;2022-08-19T01:47:52;22.30;72.50
39777;DHT22;25453;48.162;14.510;2022-08-19T01:50:28;22.30;72.70
39777;DHT22;25453;48.162;14.510;2022-08-19T01:53:03;22.30;72.80
39777;DHT22;25453;48.162;14.510;2022-08-19T01:55:35;22.30;72.90
39777;DHT22;25453;48.162;14.510;2022-08-19T01:58:11;22.30;72.90
39777;DHT22;25453;48.162;14.510;2022-08-19T02:00:39;22.40;73.00
39777;DHT22;25453;48.162;14.510;2022-08-19T02:03:12;22.40;72.90
39777;DHT22;25453;48.162;14.510;2022-08-19T02:05:46;22.40;72.80
39777;DHT22;25453;48.162;14.510;2022-08-19T02:08:28;22.40;72.80
39777;DHT22;25453;48.162;14.510;2022-08-19T02:10:55;22.30;72.80
39777;DHT22;25453;48.162;14.510;2022-08-19T02:13:29;22.30;72.90
39777;DHT22;25453;48.162;14.510;2022-08-19T02:15:57;22.30;73.00
39777;DHT22;25453;48.162;14.510;2022-08-19T02:18:31;22.30;73.00
39777;DHT22;25453;48.162;14.510;2022-08-19T02:20:59;22.30;73.20
39777;DHT22;25453;48.162;14.510;2022-08-19T02:23:33;22.30;73.20
39777;DHT22;25453;48.162;14.510;2022-08-19T02:26:07;22.30;73.20
39777;DHT22;25453;48.162;14.510;2022-08-19T02:28:35;22.30;73.10
39777;DHT22;25453;48.162;14.510;2022-08-19T02:31:13;22.30;73.20
39777;DHT22;25453;48.162;14.510;2022-08-19T02:33:45;22.30;73.40
39777;DHT22;25453;48.162;14.510;2022-08-19T02:36:23;22.30;73.30
39777;DHT22;25453;48.162;14.510;2022-08-19T02:38:50;22.30;73.10
39777;DHT22;25453;48.162;14.510;2022-08-19T02:41:25;22.30;73.20
39777;DHT22;25453;48.162;14.510;2022-08-19T02:44:00;22.30;73.40
39777;DHT22;25453;48.162;14.510;2022-08-19T02:46:55;22.40;73.50
39777;DHT22;25453;48.162;14.510;2022-08-19T02:49:22;22.40;73.40
39777;DHT22;25453;48.162;14.510;2022-08-19T02:52:00;22.40;73.20
39777;DHT22;25453;48.162;14.510;2022-08-19T02:54:27;22.40;73.00
39777;DHT22;25453;48.162;14.510;2022-08-19T02:57:01;22.40;73.10
39777;DHT22;25453;48.162;14.510;2022-08-19T02:59:32;22.30;73.10
39777;DHT22;25453;48.162;14.510;2022-08-19T03:02:06;22.30;73.30
39777;DHT22;25453;48.162;14.510;2022-08-19T03:04:33;22.30;73.40
39777;DHT22;25453;48.162;14.510;2022-08-19T03:07:14;22.40;73.40
39777;DHT22;25453;48.162;14.510;2022-08-19T03:09:42;22.40;73.30
39777;DHT22;25453;48.162;14.510;2022-08-19T03:12:15;22.40;73.00
39777;DHT22;25453;48.162;14.510;2022-08-19T03:14:42;22.40;73.00
39777;DHT22;25453;48.162;14.510;2022-08-19T03:17:16;22.30;73.00
39777;DHT22;25453;48.162;14.510;2022-08-19T03:19:44;22.40;73.20
39777;DHT22;25453;48.162;14.510;2022-08-19T03:22:17;22.40;72.90
39777;DHT22;25453;48.162;14.510;2022-08-19T03:24:46;22.30;72.80
39777;DHT22;25453;48.162;14.510;2022-08-19T03:27:13;22.30;72.90
39777;DHT22;25453;48.162;14.510;2022-08-19T03:29:47;22.20;72.70
39777;DHT22;25453;48.162;14.510;2022-08-19T03:32:15;22.10;72.70
39777;DHT22;25453;48.162;14.510;2022-08-19T03:34:58;22.10;72.60
39777;DHT22;25453;48.162;14.510;2022-08-19T03:37:25;22.00;72.70
39777;DHT22;25453;48.162;14.510;2022-08-19T03:39:59;22.00;73.10
39777;DHT22;25453;48.162;14.510;2022-08-19T03:42:39;22.00;72.90
39777;DHT22;25453;48.162;14.510;2022-08-19T03:45:15;22.00;72.70
39777;DHT22;25453;48.162;14.510;2022-08-19T03:47:49;21.90;72.70
39777;DHT22;25453;48.162;14.510;2022-08-19T03:50:16;21.90;73.00
39777;DHT22;25453;48.162;14.510;2022-08-19T03:52:51;22.00;73.20
39777;DHT22;25453;48.162;14.510;2022-08-19T03:55:24;22.00;73.20
39777;DHT22;25453;48.162;14.510;2022-08-19T03:57:51;22.10;73.10
39777;DHT22;25453;48.162;14.510;2022-08-19T04:00:25;22.00;72.70
39777;DHT22;25453;48.162;14.510;2022-08-19T04:02:53;22.00;72.90
39777;DHT22;25453;48.162;14.510;2022-08-19T04:05:27;22.00;72.90
39777;DHT22;25453;48.162;14.510;2022-08-19T04:08:01;22.00;73.20
39777;DHT22;25453;48.162;14.510;2022-08-19T04:10:39;22.00;73.10
39777;DHT22;25453;48.162;14.510;2022-08-19T04:13:14;22.00;72.90
39777;DHT22;25453;48.162;14.510;2022-08-19T04:15:42;22.00;73.10
39777;DHT22;25453;48.162;14.510;2022-08-19T04:18:16;22.00;73.20
39777;DHT22;25453;48.162;14.510;2022-08-19T04:20:45;21.90;73.30
39777;DHT22;25453;48.162;14.510;2022-08-19T04:23:13;22.00;73.60
39777;DHT22;25453;48.162;14.510;2022-08-19T04:25:48;22.00;73.70
39777;DHT22;25453;48.162;14.510;2022-08-19T04:28:15;22.10;73.80
39777;DHT22;25453;48.162;14.510;2022-08-19T04:30:49;22.10;73.70
39777;DHT22;25453;48.162;14.510;2022-08-19T04:33:24;22.20;73.70
39777;DHT22;25453;48.162;14.510;2022-08-19T04:35:54;22.20;73.60
39777;DHT22;25453;48.162;14.510;2022-08-19T04:38:27;22.30;73.50
39777;DHT22;25453;48.162;14.510;2022-08-19T04:40:54;22.30;73.30
39777;DHT22;25453;48.162;14.510;2022-08-19T04:43:46;22.30;73.30
39777;DHT22;25453;48.162;14.510;2022-08-19T04:46:17;22.30;73.40
39777;DHT22;25453;48.162;14.510;2022-08-19T04:49:06;22.30;73.30
39777;DHT22;25453;48.162;14.510;2022-08-19T04:51:40;22.20;73.30
39777;DHT22;25453;48.162;14.510;2022-08-19T04:54:14;22.10;73.50
39777;DHT22;25453;48.162;14.510;2022-08-19T04:57:02;22.10;73.80
39777;DHT22;25453;48.162;14.510;2022-08-19T04:59:38;22.10;74.10
39777;DHT22;25453;48.162;14.510;2022-08-19T05:02:07;22.10;74.20
39777;DHT22;25453;48.162;14.510;2022-08-19T05:04:34;22.10;74.30
39777;DHT22;25453;48.162;14.510;2022-08-19T05:07:18;22.10;74.50
39777;DHT22;25453;48.162;14.510;2022-08-19T05:09:53;22.20;74.60
39777;DHT22;25453;48.162;14.510;2022-08-19T05:12:24;22.10;74.80
39777;DHT22;25453;48.162;14.510;2022-08-19T05:15:08;22.10;75.20
39777;DHT22;25453;48.162;14.510;2022-08-19T05:17:48;22.10;75.50
39777;DHT22;25453;48.162;14.510;2022-08-19T05:20:40;22.20;75.70
39777;DHT22;25453;48.162;14.510;2022-08-19T05:23:26;22.10;75.70
39777;DHT22;25453;48.162;14.510;2022-08-19T05:25:59;22.10;75.90
39777;DHT22;25453;48.162;14.510;2022-08-19T05:28:26;22.10;76.00
39777;DHT22;25453;48.162;14.510;2022-08-19T05:31:01;22.10;76.10
39777;DHT22;25453;48.162;14.510;2022-08-19T05:33:28;22.10;76.30
39777;DHT22;25453;48.162;14.510;2022-08-19T05:35:56;22.10;76.30
39777;DHT22;25453;48.162;14.510;2022-08-19T05:38:30;22.10;76.40
39777;DHT22;25453;48.162;14.510;2022-08-19T05:40:57;22.10;76.50
39777;DHT22;25453;48.162;14.510;2022-08-19T05:43:32;22.10;76.70
39777;DHT22;25453;48.162;14.510;2022-08-19T05:45:59;22.10;76.70
39777;DHT22;25453;48.162;14.510;2022-08-19T05:48:33;22.10;76.60
39777;DHT22;25453;48.162;14.510;2022-08-19T05:51:04;22.00;76.90
39777;DHT22;25453;48.162;14.510;2022-08-19T05:53:43;22.00;77.30
39777;DHT22;25453;48.162;14.510;2022-08-19T05:56:14;22.10;77.30
39777;DHT22;25453;48.162;14.510;2022-08-19T05:58:49;22.10;77.40
39777;DHT22;25453;48.162;14.510;2022-08-19T06:01:17;22.20;77.40
39777;DHT22;25453;48.162;14.510;2022-08-19T06:03:51;22.20;77.40
39777;DHT22;25453;48.162;14.510;2022-08-19T06:06:19;22.20;77.50
39777;DHT22;25453;48.162;14.510;2022-08-19T06:09:07;22.30;77.30
39777;DHT22;25453;48.162;14.510;2022-08-19T06:11:39;22.30;77.20
39777;DHT22;25453;48.162;14.510;2022-08-19T06:14:16;22.30;77.40
39777;DHT22;25453;48.162;14.510;2022-08-19T06:16:51;22.30;77.50
39777;DHT22;25453;48.162;14.510;2022-08-19T06:19:30;22.40;77.60
39777;DHT22;25453;48.162;14.510;2022-08-19T06:21:58;22.40;77.70
39777;DHT22;25453;48.162;14.510;2022-08-19T06:24:33;22.50;77.70
39777;DHT22;25453;48.162;14.510;2022-08-19T06:27:00;22.60;77.50
39777;DHT22;25453;48.162;14.510;2022-08-19T06:29:28;22.60;77.10
39777;DHT22;25453;48.162;14.510;2022-08-19T06:32:04;22.50;77.10
39777;DHT22;25453;48.162;14.510;2022-08-19T06:34:32;22.50;77.30
39777;DHT22;25453;48.162;14.510;2022-08-19T06:37:06;22.40;77.50
39777;DHT22;25453;48.162;14.510;2022-08-19T06:39:41;22.40;77.80
39777;DHT22;25453;48.162;14.510;2022-08-19T06:42:09;22.50;78.10
39777;DHT22;25453;48.162;14.510;2022-08-19T06:44:49;22.50;78.00
39777;DHT22;25453;48.162;14.510;2022-08-19T06:47:20;22.50;77.90
39777;DHT22;25453;48.162;14.510;2022-08-19T06:49:58;22.60;77.70
39777;DHT22;25453;48.162;14.510;2022-08-19T06:52:31;22.50;77.60
39777;DHT22;25453;48.162;14.510;2022-08-19T06:55:06;22.50;77.90
39777;DHT22;25453;48.162;14.510;2022-08-19T06:57:34;22.60;77.90
39777;DHT22;25453;48.162;14.510;2022-08-19T07:00:07;22.60;77.90
39777;DHT22;25453;48.162;14.510;2022-08-19T07:02:41;22.70;77.90
39777;DHT22;25453;48.162;14.510;2022-08-19T07:05:22;22.70;77.90
39777;DHT22;25453;48.162;14.510;2022-08-19T07:08:04;22.80;78.20
39777;DHT22;25453;48.162;14.510;2022-08-19T07:10:42;22.90;78.00
39777;DHT22;25453;48.162;14.510;2022-08-19T07:13:09;22.90;77.90
39777;DHT22;25453;48.162;14.510;2022-08-19T07:15:43;23.00;78.00
39777;DHT22;25453;48.162;14.510;2022-08-19T07:18:20;23.10;77.70
39777;DHT22;25453;48.162;14.510;2022-08-19T07:20:48;23.20;77.70
39777;DHT22;25453;48.162;14.510;2022-08-19T07:23:17;23.30;77.70
39777;DHT22;25453;48.162;14.510;2022-08-19T07:25:51;23.40;77.40
39777;DHT22;25453;48.162;14.510;2022-08-19T07:28:26;23.50;77.10
39777;DHT22;25453;48.162;14.510;2022-08-19T07:31:00;23.50;76.90
39777;DHT22;25453;48.162;14.510;2022-08-19T07:33:35;23.60;76.80
39777;DHT22;25453;48.162;14.510;2022-08-19T07:36:05;23.60;76.40
39777;DHT22;25453;48.162;14.510;2022-08-19T07:38:35;23.60;76.10
39777;DHT22;25453;48.162;14.510;2022-08-19T07:41:11;23.60;76.00
39777;DHT22;25453;48.162;14.510;2022-08-19T07:43:39;23.70;76.00
39777;DHT22;25453;48.162;14.510;2022-08-19T07:46:14;23.70;75.90
39777;DHT22;25453;48.162;14.510;2022-08-19T07:48:43;23.80;75.80
39777;DHT22;25453;48.162;14.510;2022-08-19T07:51:20;23.90;75.70
39777;DHT22;25453;48.162;14.510;2022-08-19T07:54:03;24.00;75.60
39777;DHT22;25453;48.162;14.510;2022-08-19T07:56:37;24.10;75.40
39777;DHT22;25453;48.162;14.510;2022-08-19T07:59:04;24.10;75.10
39777;DHT22;25453;48.162;14.510;2022-08-19T08:01:38;24.20;74.90
39777;DHT22;25453;48.162;14.510;2022-08-19T08:04:07;24.20;74.70
39777;DHT22;25453;48.162;14.510;2022-08-19T08:07:00;24.20;74.60
39777;DHT22;25453;48.162;14.510;2022-08-19T08:10:04;24.20;73.90
39777;DHT22;25453;48.162;14.510;2022-08-19T08:12:47;24.10;73.70
39777;DHT22;25453;48.162;14.510;2022-08-19T08:15:37;24.10;73.90
39777;DHT22;25453;48.162;14.510;2022-08-19T08:18:09;24.10;73.90
39777;DHT22;25453;48.162;14.510;2022-08-19T08:20:44;24.10;73.90
39777;DHT22;25453;48.162;14.510;2022-08-19T08:23:13;24.10;73.70
39777;DHT22;25453;48.162;14.510;2022-08-19T08:25:57;24.20;73.80
39777;DHT22;25453;48.162;14.510;2022-08-19T08:28:25;24.30;73.80
39777;DHT22;25453;48.162;14.510;2022-08-19T08:31:00;24.40;73.70
39777;DHT22;25453;48.162;14.510;2022-08-19T08:33:35;24.50;73.40
39777;DHT22;25453;48.162;14.510;2022-08-19T08:36:09;24.60;72.80
39777;DHT22;25453;48.162;14.510;2022-08-19T08:38:44;24.60;72.60
39777;DHT22;25453;48.162;14.510;2022-08-19T08:41:27;24.60;72.50
39777;DHT22;25453;48.162;14.510;2022-08-19T08:44:02;24.60;72.40
39777;DHT22;25453;48.162;14.510;2022-08-19T08:46:37;24.50;72.40
39777;DHT22;25453;48.162;14.510;2022-08-19T08:52:33;24.60;72.70
39777;DHT22;25453;48.162;14.510;2022-08-19T08:54:59;24.60;72.90
39777;DHT22;25453;48.162;14.510;2022-08-19T09:00:44;24.90;72.90
39777;DHT22;25453;48.162;14.510;2022-08-19T09:03:26;25.10;72.80
39777;DHT22;25453;48.162;14.510;2022-08-19T09:09:03;25.30;72.00
39777;DHT22;25453;48.162;14.510;2022-08-19T09:17:13;25.50;71.10
39777;DHT22;25453;48.162;14.510;2022-08-19T09:19:51;25.60;70.90
39777;DHT22;25453;48.162;14.510;2022-08-19T09:22:27;25.60;71.10
39777;DHT22;25453;48.162;14.510;2022-08-19T09:24:56;25.80;71.10
39777;DHT22;25453;48.162;14.510;2022-08-19T09:27:31;26.00;70.80
39777;DHT22;25453;48.162;14.510;2022-08-19T09:30:14;26.10;70.20
39777;DHT22;25453;48.162;14.510;2022-08-19T09:33:09;26.20;69.80
39777;DHT22;25453;48.162;14.510;2022-08-19T09:35:37;26.40;69.70
39777;DHT22;25453;48.162;14.510;2022-08-19T09:38:20;26.50;69.40
39777;DHT22;25453;48.162;14.510;2022-08-19T09:40:48;26.50;68.90
39777;DHT22;25453;48.162;14.510;2022-08-19T09:43:24;26.60;68.90
39777;DHT22;25453;48.162;14.510;2022-08-19T09:46:09;26.70;68.90
39777;DHT22;25453;48.162;14.510;2022-08-19T09:48:44;26.80;68.30
39777;DHT22;25453;48.162;14.510;2022-08-19T09:51:31;26.80;67.50
39777;DHT22;25453;48.162;14.510;2022-08-19T09:54:02;26.80;67.00
39777;DHT22;25453;48.162;14.510;2022-08-19T09:56:37;26.70;66.70
39777;DHT22;25453;48.162;14.510;2022-08-19T09:59:11;26.60;66.80
39777;DHT22;25453;48.162;14.510;2022-08-19T10:01:45;26.60;66.70
39777;DHT22;25453;48.162;14.510;2022-08-19T10:04:29;26.50;66.70
39777;DHT22;25453;48.162;14.510;2022-08-19T10:07:48;26.40;66.90
39777;DHT22;25453;48.162;14.510;2022-08-19T10:10:24;26.40;66.90
39777;DHT22;25453;48.162;14.510;2022-08-19T10:12:58;26.30;66.80
39777;DHT22;25453;48.162;14.510;2022-08-19T10:15:34;26.30;66.70
39777;DHT22;25453;48.162;14.510;2022-08-19T10:18:13;26.30;66.80
39777;DHT22;25453;48.162;14.510;2022-08-19T10:20:52;26.30;66.70
39777;DHT22;25453;48.162;14.510;2022-08-19T10:23:28;26.20;66.50
39777;DHT22;25453;48.162;14.510;2022-08-19T10:26:04;26.20;66.40
39777;DHT22;25453;48.162;14.510;2022-08-19T10:28:45;26.10;66.40
39777;DHT22;25453;48.162;14.510;2022-08-19T10:31:21;26.10;66.50
39777;DHT22;25453;48.162;14.510;2022-08-19T10:34:09;26.10;66.60
39777;DHT22;25453;48.162;14.510;2022-08-19T10:36:54;26.10;66.70
39777;DHT22;25453;48.162;14.510;2022-08-19T10:39:31;26.20;66.70
39777;DHT22;25453;48.162;14.510;2022-08-19T10:42:09;26.20;66.70
39777;DHT22;25453;48.162;14.510;2022-08-19T10:44:40;26.30;67.00
39777;DHT22;25453;48.162;14.510;2022-08-19T10:47:17;26.50;66.90
39777;DHT22;25453;48.162;14.510;2022-08-19T10:49:52;26.60;66.30
39777;DHT22;25453;48.162;14.510;2022-08-19T10:52:45;26.70;66.00
39777;DHT22;25453;48.162;14.510;2022-08-19T10:55:17;26.80;65.80
39777;DHT22;25453;48.162;14.510;2022-08-19T10:58:13;27.00;66.30
39777;DHT22;25453;48.162;14.510;2022-08-19T11:00:53;27.40;65.80
39777;DHT22;25453;48.162;14.510;2022-08-19T11:03:32;27.60;64.70
39777;DHT22;25453;48.162;14.510;2022-08-19T11:06:07;27.60;63.90
39777;DHT22;25453;48.162;14.510;2022-08-19T11:08:42;27.50;63.30
39777;DHT22;25453;48.162;14.510;2022-08-19T11:11:11;27.50;63.10
39777;DHT22;25453;48.162;14.510;2022-08-19T11:13:46;27.50;63.20
39777;DHT22;25453;48.162;14.510;2022-08-19T11:16:21;27.40;63.00
39777;DHT22;25453;48.162;14.510;2022-08-19T11:18:58;27.50;63.10
39777;DHT22;25453;48.162;14.510;2022-08-19T11:21:33;27.50;62.90
39777;DHT22;25453;48.162;14.510;2022-08-19T11:24:06;27.70;62.80
39777;DHT22;25453;48.162;14.510;2022-08-19T11:26:43;27.70;62.50
39777;DHT22;25453;48.162;14.510;2022-08-19T11:29:12;27.80;62.00
39777;DHT22;25453;48.162;14.510;2022-08-19T11:31:48;27.90;61.70
39777;DHT22;25453;48.162;14.510;2022-08-19T11:34:27;27.80;61.40
39777;DHT22;25453;48.162;14.510;2022-08-19T11:37:18;27.80;61.30
39777;DHT22;25453;48.162;14.510;2022-08-19T11:39:49;27.80;61.20
39777;DHT22;25453;48.162;14.510;2022-08-19T11:42:24;27.70;61.00
39777;DHT22;25453;48.162;14.510;2022-08-19T11:45:18;27.70;60.90
39777;DHT22;25453;48.162;14.510;2022-08-19T11:47:55;27.70;61.20
39777;DHT22;25453;48.162;14.510;2022-08-19T11:50:29;27.70;60.90
39777;DHT22;25453;48.162;14.510;2022-08-19T11:53:19;27.80;60.60
39777;DHT22;25453;48.162;14.510;2022-08-19T11:55:48;27.80;60.50
39777;DHT22;25453;48.162;14.510;2022-08-19T11:58:26;27.90;60.40
39777;DHT22;25453;48.162;14.510;2022-08-19T12:01:07;27.90;60.30
39777;DHT22;25453;48.162;14.510;2022-08-19T12:03:35;27.90;60.20
39777;DHT22;25453;48.162;14.510;2022-08-19T12:06:10;28.00;60.10
39777;DHT22;25453;48.162;14.510;2022-08-19T12:08:46;28.00;59.90
39777;DHT22;25453;48.162;14.510;2022-08-19T12:11:22;28.00;60.00
39777;DHT22;25453;48.162;14.510;2022-08-19T12:14:00;28.00;60.00
39777;DHT22;25453;48.162;14.510;2022-08-19T12:16:28;28.10;59.60
39777;DHT22;25453;48.162;14.510;2022-08-19T12:19:07;28.10;59.30
39777;DHT22;25453;48.162;14.510;2022-08-19T12:21:35;28.10;59.10
39777;DHT22;25453;48.162;14.510;2022-08-19T12:24:08;28.10;58.90
39777;DHT22;25453;48.162;14.510;2022-08-19T12:26:36;28.10;58.70
39777;DHT22;25453;48.162;14.510;2022-08-19T12:29:19;28.00;58.70
39777;DHT22;25453;48.162;14.510;2022-08-19T12:31:50;28.00;58.80
39777;DHT22;25453;48.162;14.510;2022-08-19T12:34:25;28.00;59.00
39777;DHT22;25453;48.162;14.510;2022-08-19T12:36:52;28.10;58.70
39777;DHT22;25453;48.162;14.510;2022-08-19T12:39:20;28.10;58.40
39777;DHT22;25453;48.162;14.510;2022-08-19T12:41:53;28.30;58.40
39777;DHT22;25453;48.162;14.510;2022-08-19T12:44:27;28.50;57.80
39777;DHT22;25453;48.162;14.510;2022-08-19T12:47:07;28.60;57.10
39777;DHT22;25453;48.162;14.510;2022-08-19T12:49:35;28.60;56.80
39777;DHT22;25453;48.162;14.510;2022-08-19T12:52:21;28.60;56.90
39777;DHT22;25453;48.162;14.510;2022-08-19T12:54:50;28.80;57.10
39777;DHT22;25453;48.162;14.510;2022-08-19T12:57:25;28.90;56.70
39777;DHT22;25453;48.162;14.510;2022-08-19T12:59:59;29.00;56.60
39777;DHT22;25453;48.162;14.510;2022-08-19T13:02:33;29.20;56.40
39777;DHT22;25453;48.162;14.510;2022-08-19T13:05:05;29.30;56.00
39777;DHT22;25453;48.162;14.510;2022-08-19T13:07:47;29.40;55.50
39777;DHT22;25453;48.162;14.510;2022-08-19T13:10:15;29.50;55.10
39777;DHT22;25453;48.162;14.510;2022-08-19T13:12:50;29.50;54.80
39777;DHT22;25453;48.162;14.510;2022-08-19T13:15:19;29.50;53.80
39777;DHT22;25453;48.162;14.510;2022-08-19T13:17:54;29.30;53.70
39777;DHT22;25453;48.162;14.510;2022-08-19T13:20:30;29.20;53.70
39777;DHT22;25453;48.162;14.510;2022-08-19T13:23:04;29.10;54.10
39777;DHT22;25453;48.162;14.510;2022-08-19T13:25:32;29.10;54.30
39777;DHT22;25453;48.162;14.510;2022-08-19T13:28:06;29.10;54.10
39777;DHT22;25453;48.162;14.510;2022-08-19T13:30:38;29.10;54.10
39777;DHT22;25453;48.162;14.510;2022-08-19T13:33:32;29.10;54.30
39777;DHT22;25453;48.162;14.510;2022-08-19T13:36:01;29.10;54.40
39777;DHT22;25453;48.162;14.510;2022-08-19T13:38:36;29.10;54.50
39777;DHT22;25453;48.162;14.510;2022-08-19T13:41:05;29.20;54.10
39777;DHT22;25453;48.162;14.510;2022-08-19T13:43:41;29.20;54.00
39777;DHT22;25453;48.162;14.510;2022-08-19T13:46:14;29.20;54.00
39777;DHT22;25453;48.162;14.510;2022-08-19T13:48:49;29.30;54.00
39777;DHT22;25453;48.162;14.510;2022-08-19T13:51:17;29.40;53.90
39777;DHT22;25453;48.162;14.510;2022-08-19T13:53:51;29.40;53.80
39777;DHT22;25453;48.162;14.510;2022-08-19T13:56:21;29.50;53.90
39777;DHT22;25453;48.162;14.510;2022-08-19T13:58:55;29.50;54.00
39777;DHT22;25453;48.162;14.510;2022-08-19T14:01:25;29.50;53.80
39777;DHT22;25453;48.162;14.510;2022-08-19T14:04:00;29.50;53.70
39777;DHT22;25453;48.162;14.510;2022-08-19T14:06:29;29.50;53.80
39777;DHT22;25453;48.162;14.510;2022-08-19T14:09:17;29.50;54.10
39777;DHT22;25453;48.162;14.510;2022-08-19T14:11:53;29.60;54.10
39777;DHT22;25453;48.162;14.510;2022-08-19T14:14:28;29.80;54.20
39777;DHT22;25453;48.162;14.510;2022-08-19T14:16:56;29.90;54.20
39777;DHT22;25453;48.162;14.510;2022-08-19T14:19:30;30.10;53.80
39777;DHT22;25453;48.162;14.510;2022-08-19T14:21:58;30.30;53.60
39777;DHT22;25453;48.162;14.510;2022-08-19T14:24:32;30.40;53.20
39777;DHT22;25453;48.162;14.510;2022-08-19T14:26:59;30.40;52.80
39777;DHT22;25453;48.162;14.510;2022-08-19T14:29:26;30.40;52.60
39777;DHT22;25453;48.162;14.510;2022-08-19T14:32:02;30.30;52.50
39777;DHT22;25453;48.162;14.510;2022-08-19T14:34:42;30.30;52.40
39777;DHT22;25453;48.162;14.510;2022-08-19T14:37:25;30.20;52.00
39777;DHT22;25453;48.162;14.510;2022-08-19T14:39:54;30.10;51.90
39777;DHT22;25453;48.162;14.510;2022-08-19T14:42:31;29.90;52.10
39777;DHT22;25453;48.162;14.510;2022-08-19T14:44:58;29.80;52.20
39777;DHT22;25453;48.162;14.510;2022-08-19T14:47:33;29.60;52.30
39777;DHT22;25453;48.162;14.510;2022-08-19T14:50:01;29.40;52.30
39777;DHT22;25453;48.162;14.510;2022-08-19T14:52:30;29.20;52.50
39777;DHT22;25453;48.162;14.510;2022-08-19T14:55:05;29.00;52.70
39777;DHT22;25453;48.162;14.510;2022-08-19T14:57:33;28.80;53.30
39777;DHT22;25453;48.162;14.510;2022-08-19T15:00:07;28.70;53.70
39777;DHT22;25453;48.162;14.510;2022-08-19T15:02:45;28.70;54.00
39777;DHT22;25453;48.162;14.510;2022-08-19T15:05:12;28.60;54.20
39777;DHT22;25453;48.162;14.510;2022-08-19T15:07:46;28.50;54.10
39777;DHT22;25453;48.162;14.510;2022-08-19T15:10:35;28.40;54.20
39777;DHT22;25453;48.162;14.510;2022-08-19T15:13:09;28.30;54.40
39777;DHT22;25453;48.162;14.510;2022-08-19T15:15:43;28.20;54.60
39777;DHT22;25453;48.162;14.510;2022-08-19T15:18:19;28.10;54.80
39777;DHT22;25453;48.162;14.510;2022-08-19T15:20:56;28.00;55.10
39777;DHT22;25453;48.162;14.510;2022-08-19T15:23:23;27.90;55.30
39777;DHT22;25453;48.162;14.510;2022-08-19T15:26:02;27.90;55.40
39777;DHT22;25453;48.162;14.510;2022-08-19T15:28:31;27.80;55.50
39777;DHT22;25453;48.162;14.510;2022-08-19T15:31:06;27.70;55.80
39777;DHT22;25453;48.162;14.510;2022-08-19T15:33:55;27.60;55.90
39777;DHT22;25453;48.162;14.510;2022-08-19T15:36:24;27.40;56.10
39777;DHT22;25453;48.162;14.510;2022-08-19T15:39:00;27.30;56.30
39777;DHT22;25453;48.162;14.510;2022-08-19T15:41:29;27.20;56.60
39777;DHT22;25453;48.162;14.510;2022-08-19T15:44:05;27.00;55.60
39777;DHT22;25453;48.162;14.510;2022-08-19T15:46:38;26.70;55.30
39777;DHT22;25453;48.162;14.510;2022-08-19T15:49:14;26.30;55.40
39777;DHT22;25453;48.162;14.510;2022-08-19T15:51:43;25.90;55.80
39777;DHT22;25453;48.162;14.510;2022-08-19T15:54:17;25.50;56.70
39777;DHT22;25453;48.162;14.510;2022-08-19T15:56:54;25.30;57.30
39777;DHT22;25453;48.162;14.510;2022-08-19T15:59:39;25.00;58.00
39777;DHT22;25453;48.162;14.510;2022-08-19T16:02:32;24.80;58.70
39777;DHT22;25453;48.162;14.510;2022-08-19T16:05:20;24.60;59.60
39777;DHT22;25453;48.162;14.510;2022-08-19T16:08:13;24.40;60.30
39777;DHT22;25453;48.162;14.510;2022-08-19T16:10:56;24.10;61.20
39777;DHT22;25453;48.162;14.510;2022-08-19T16:13:30;23.80;61.90
39777;DHT22;25453;48.162;14.510;2022-08-19T16:15:59;23.70;63.10